Search for the current weather situation

Metar

Metar
TNCE 240755Z AUTO 07012KT 040V100 //// // ///////// 24/20 Q1018 RE//
Decoded Metar

TAF

TAF
TNCE 240755Z AUTO 07012KT 040V100 //// // ///////// 24/20 Q1018 RE//
Decoded TAF
Top